Greeley West High School, Colorado
Current Conditions -  °F | °C
As of 5:55 AM on Sunday 21 Dec 2014 (Local Time) from KGXY Reporting Station
Clear Clear  
Wind Chill: 19°   Ceiling: Unl
Heat Index: 19°   Visibility: 10mi
Dew Point: 10°   Wind: 3mph
Humidity: 68%   Direction: 90°E
Pressure: 29.73"   Gusts: NA
Location:  40.41412°N, 104.7064°W
Report Text: KGXY 211255Z AUTO 09003KT 10SM CLR M07/M12 A2973 RMK AO1
Loading
Personal Weather Stations






























Interactive Weather Map New forecast layout! Learn more

10-Day Weather Forecast

Advertisements
Track Severe Weather on mobile